ADDS METAR Data INFO
IDs: Format: Raw Decoded Include TAF

Data at: 0752 UTC 21 Nov 2017

KBPG 210735Z AUTO 18008KT 10SM CLR 08/01 A2989 RMK AO2 T00800008
KBPG 210715Z AUTO 16008KT 10SM CLR 09/01 A2990 RMK AO2 T00850007
KBPG 210655Z AUTO 17009KT 10SM CLR 09/01 A2990 RMK AO2 T00880005
KBPG 210635Z AUTO 16009KT 10SM CLR 09/00 A2991 RMK AO2 T00910004
KBPG 210615Z AUTO 17011KT 10SM CLR 10/00 A2991 RMK AO2 T00980004
KBPG 210555Z AUTO 16011KT 10SM CLR 10/00 A2991 RMK AO2 T01020002 10147 20102 401980011
KBPG 210535Z AUTO 15012KT 10SM CLR 10/00 A2991 RMK AO2 T01030001
KBPG 210515Z AUTO 17010KT 10SM CLR 10/00 A2993 RMK AO2 T01020000
KBPG 210455Z AUTO 16009KT 10SM CLR 11/00 A2993 RMK AO2 T01060000
KBPG 210435Z AUTO 17010KT 10SM CLR 12/00 A2994 RMK AO2 T01161001
KBPG 210415Z AUTO 17010KT 10SM CLR 13/00 A2993 RMK AO2 T01251003
KBPG 210355Z AUTO 17012KT 10SM CLR 13/00 A2994 RMK AO2 T01291003
KBPG 210335Z AUTO 17012KT 10SM CLR 13/00 A2993 RMK AO2 T01301003
KBPG 210315Z AUTO 17010KT 10SM CLR 13/00 A2993 RMK AO2 T01291002
KBPG 210255Z AUTO 17010KT 10SM CLR 13/00 A2993 RMK AO2 T01331002
KBPG 210235Z AUTO 18011KT 10SM CLR 13/00 A2993 RMK AO2 T01341002
KBPG 210215Z AUTO 17008KT 10SM CLR 13/00 A2992 RMK AO2 T01261001
KBPG 210155Z AUTO 17008KT 10SM CLR 12/00 A2992 RMK AO2 T01231003
KBPG 210135Z AUTO 17008KT 10SM CLR 12/00 A2993 RMK AO2 T01241005
KBPG 210115Z AUTO 17007KT 10SM CLR 12/M01 A2993 RMK AO2 T01221011
KBPG 210055Z AUTO 16009KT 10SM CLR 13/M02 A2992 RMK AO2 T01311018
KBPG 210035Z AUTO 16007KT 10SM CLR 14/M02 A2993 RMK AO2 T01391021
KBPG 210015Z AUTO 18009KT 10SM CLR 15/M02 A2992 RMK AO2 T01461023
KBPG 202355Z AUTO 18008KT 10SM CLR 15/M03 A2993 RMK AO2 T01461026 10198 20146
KBPG 202335Z AUTO 18008KT 10SM CLR 15/M03 A2993 RMK AO2 T01511030
KBPG 202315Z AUTO 19008KT 10SM CLR 17/M03 A2995 RMK AO2 T01651031
KBPG 202255Z AUTO 20009KT 10SM CLR 18/M04 A2995 RMK AO2 T01821036
KBPG 202235Z AUTO 20012KT 10SM CLR 19/M04 A2994 RMK AO2 T01941038
KBPG 202215Z AUTO 20013G16KT 10SM CLR 20/M04 A2995 RMK AO2 T01951038
KBPG 202155Z AUTO 21013KT 10SM CLR 20/M03 A2995 RMK AO2 T01971033
KBPG 202135Z AUTO 21015KT 10SM CLR 20/M03 A2996 RMK AO2 T01971028
KBPG 202115Z AUTO 19013G18KT 10SM CLR 20/M02 A2995 RMK AO2 T01951017
KBPG 202055Z AUTO 20013KT 10SM CLR 19/M02 A2996 RMK AO2 T01911017
KBPG 202035Z AUTO 20013KT 10SM CLR 19/M02 A2997 RMK AO2 T01891016
KBPG 202015Z AUTO 20012KT 10SM CLR 19/M01 A2998 RMK AO2 T01861014
KBPG 201955Z AUTO 22014G19KT 10SM CLR 18/M02 A3000 RMK AO2 T01821016
KBPG 201935Z AUTO 21016G20KT 10SM CLR 18/M01 A3000 RMK AO2 T01801014
KBPG 201915Z AUTO 22011G19KT 10SM CLR 18/M02 A3001 RMK AO2 T01761016
KBPG 201855Z AUTO 22011G18KT 10SM CLR 18/M01 A3002 RMK AO2 T01751014
KBPG 201835Z AUTO 22011KT 10SM CLR 17/M01 A3004 RMK AO2 T01671015
KBPG 201815Z AUTO 21013G17KT 10SM CLR 16/M02 A3005 RMK AO2 T01611016
KBPG 201755Z AUTO 20014KT 10SM 16/M01 A3007 RMK AO2 T01551015 10155 20011
KBPG 201735Z AUTO 20012KT 10SM CLR 15/M02 A3008 RMK AO2 T01461017
KBPG 201715Z AUTO A3009 RMK AO2
KBPG 201655Z AUTO 20014KT 10SM CLR 13/M02 A3010 RMK AO2 T01291019
KBPG 201635Z AUTO 19011KT 10SM CLR 12/M02 A3011 RMK AO2 T01201023
KBPG 201615Z AUTO 18014KT 10SM CLR 12/M02 A3011 RMK AO2 LTG DSNT SE T01171024
KBPG 201555Z AUTO 18012KT 10SM CLR 11/M03 A3012 RMK AO2 T01051027
KBPG 201535Z AUTO 18014KT 10SM CLR 10/M03 A3012 RMK AO2 T00951029
KBPG 201515Z AUTO 17013KT 10SM CLR 08/M03 A3012 RMK AO2 T00831028
KBPG 201455Z AUTO 16010KT 10SM CLR 07/M03 A3012 RMK AO2 T00701029
KBPG 201435Z AUTO 17009KT 10SM CLR 06/M03 A3013 RMK AO2 T00561030
KBPG 201415Z AUTO 16005KT 10SM CLR 04/M03 A3014 RMK AO2 T00411031
KBPG 201355Z AUTO 14003KT 10SM CLR 02/M03 A3013 RMK AO2 T00201035
KBPG 201335Z AUTO 18003KT 10SM CLR 01/M04 A3013 RMK AO2 T00111036
KBPG 201315Z AUTO 00000KT 10SM CLR 03/M04 A3012 RMK AO2 T00251041
KBPG 201255Z AUTO 00000KT 10SM CLR 02/M04 A3011 RMK AO2 T00211040
KBPG 201235Z AUTO 17003KT 10SM CLR 02/M04 A3012 RMK AO2 T00181040
KBPG 201215Z AUTO 17005KT 10SM CLR 02/M04 A3011 RMK AO2 T00221041
KBPG 201155Z AUTO 16007KT 10SM CLR 03/M04 A3011 RMK AO2 T00271042 10030 20013
KBPG 201135Z AUTO 16006KT 10SM CLR 02/M04 A3012 RMK AO2 T00231043
KBPG 201115Z AUTO 16006KT 10SM CLR 03/M04 A3011 RMK AO2 T00251045
KBPG 201055Z AUTO 15007KT 10SM CLR 03/M05 A3011 RMK AO2 T00281046
KBPG 201035Z AUTO 14007KT 10SM CLR 02/M04 A3012 RMK AO2 T00221045
KBPG 201015Z AUTO 15007KT 10SM CLR 03/M05 A3012 RMK AO2 T00261047
KBPG 200955Z AUTO 15006KT 10SM CLR 02/M05 A3013 RMK AO2 T00201047
KBPG 200935Z AUTO 15003KT 10SM CLR 02/M05 A3014 RMK AO2 T00171047
KBPG 200910Z AUTO 16005KT 10SM CLR 02/M05 A3014 RMK AO2 T00161050
KBPG 200855Z AUTO 00000KT 10SM CLR 02/M05 A3015 RMK AO2 T00201050
KBPG 200835Z AUTO 15003KT 10SM CLR 02/M05 A3015 RMK AO2 T00201053
KBPG 200815Z AUTO 00000KT 10SM CLR 02/M05 A3016 RMK AO2 T00201055
KBPG 200755Z AUTO 17003KT 10SM CLR 02/M05 A3016 RMK AO2 T00191052
KBPG 200735Z AUTO 17005KT 10SM CLR 02/M05 A3017 RMK AO2 T00221051
KBPG 200715Z AUTO 16005KT 10SM CLR 03/M05 A3018 RMK AO2 T00251050
KBPG 200655Z AUTO 16006KT 10SM CLR 02/M05 A3019 RMK AO2 T00221051
KBPG 200635Z AUTO 17007KT 10SM CLR 03/M05 A3019 RMK AO2 T00251050
KBPG 200615Z AUTO 16007KT 10SM CLR 03/M05 A3019 RMK AO2 T00261050
KBPG 200555Z AUTO 15007KT 10SM CLR 02/M05 A3019 RMK AO2 T00241048 10093 20019
KBPG 200535Z AUTO 14004KT 10SM CLR 03/M05 A3021 RMK AO2 T00301050
KBPG 200515Z AUTO 13007KT 10SM CLR 02/M04 A3020 RMK AO2 T00211044
KBPG 200455Z AUTO 13005KT 10SM CLR 03/M05 A3021 RMK AO2 T00311047
KBPG 200435Z AUTO 14006KT 10SM CLR 04/M05 A3021 RMK AO2 T00401048
KBPG 200415Z AUTO 14005KT 10SM CLR 04/M04 A3021 RMK AO2 T00351045
KBPG 200355Z AUTO 13007KT 10SM CLR 05/M05 A3021 RMK AO2 T00461046
KBPG 200335Z AUTO 13007KT 10SM CLR 05/M05 A3021 RMK AO2 T00531046
KBPG 200315Z AUTO 13007KT 10SM CLR 06/M04 A3021 RMK AO2 T00571045
KBPG 200255Z AUTO 11008KT 10SM CLR 06/M05 A3021 RMK AO2 T00611046
KBPG 200235Z AUTO 11007KT 10SM CLR 07/M05 A3021 RMK AO2 T00651048
KBPG 200215Z AUTO 11008KT 10SM CLR 07/M05 A3021 RMK AO2 T00651050
KBPG 200155Z AUTO 10006KT 10SM CLR 06/M05 A3021 RMK AO2 T00621050
KBPG 200135Z AUTO 10006KT 10SM CLR 06/M05 A3021 RMK AO2 T00631052
KBPG 200115Z AUTO 11006KT 10SM CLR 07/M05 A3021 RMK AO2 T00651053
KBPG 200055Z AUTO 11007KT 10SM CLR 07/M06 A3021 RMK AO2 T00671058
KBPG 200035Z AUTO 12006KT 10SM CLR 07/M06 A3022 RMK AO2 T00701056
KBPG 200015Z AUTO 14005KT 10SM CLR 09/M06 A3022 RMK AO2 T00891062
KBPG 192355Z AUTO 14005KT 10SM CLR 10/M06 A3022 RMK AO2 T00951061 10146 20094
KBPG 192335Z AUTO 16005KT 10SM CLR 11/M07 A3022 RMK AO2 T01111069
KBPG 192315Z AUTO 16004KT 10SM CLR 13/M07 A3023 RMK AO2 T01251069
KBPG 192255Z AUTO 17008KT 10SM CLR 13/M08 A3023 RMK AO2 T01311079
KBPG 192235Z AUTO 18008KT 10SM CLR 13/M09 A3023 RMK AO2 T01331088
KBPG 192215Z AUTO 17009KT 10SM CLR 14/M09 A3024 RMK AO2 T01361090
KBPG 192155Z AUTO 19009KT 10SM CLR 14/M08 A3025 RMK AO2 T01371079
KBPG 192135Z AUTO 18010G14KT 10SM CLR 14/M08 A3025 RMK AO2 T01411077
KBPG 192115Z AUTO 20009KT 10SM CLR 14/M08 A3026 RMK AO2 T01401082
KBPG 192055Z AUTO 14006KT 10SM CLR 14/M09 A3026 RMK AO2 T01381092
KBPG 192035Z AUTO 17007KT 110V180 10SM CLR 14/M09 A3027 RMK AO2 T01411089
KBPG 192015Z AUTO 17004KT 10SM CLR 14/M08 A3028 RMK AO2 T01401082
KBPG 191955Z AUTO 14005KT 10SM CLR 13/M08 A3030 RMK AO2 T01341080